Terminal Aerodrome Forecast
Issued by NWS Detroit/Pontiac, MI

Home | Current Version | Previous Version | Text Only | Print | Product List | Glossary On
Versions: 1 2 3 4 5 6 7 8 9 10 11 12 13 14 15 16 17 18 19 20
000
FTUS43 KDTX 202100 AAA
TAFFNT
TAF AMD
KFNT 202124Z 2021/2118 25012KT P6SM SCT045 BKN100
      TEMPO 2022/2024 5SM SHRA OVC045
     FM210100 27005KT P6SM SCT100
     FM210900 VRB03KT 3SM BR OVC015
     FM211400 25004KT P6SM BKN035=

USA.gov is the U.S. government's official web portal to all federal, state and local government web resources and services.